Etusivu
METAR-TAF:

METAR-TAF

Lentoasemat :

Ushuaia, Argentiina

Leveyspiiri: 54-48S, Pituuspiiri: 068-19W, korkeus merenpinnasta: 16 m

Tämänhetkinen sää

Tämä raportti tehtiin 42 minuuttia sitten, kello 20.00 UTC
Tuuli 14 kn pohjoisesta
Lämpötila 5°C
Kosteus 60%
Ilmanpaine 1010 hPa
Näkyvyys 10 km tai enemmän
Hajanaisia pilviä 4500 ft:n korkeudessa
Hajonneita pilviä 8000 ft:n korkeudessa

METAR: SAWH 292000Z 36014KT 9999 SCT045 BKN080 05/M02 Q1010

Aika: 17:42 (20:42 UTC)

Sääennuste

Tämä raportti tehtiin 9 tuntia ja 42 minuuttia sitten, kello 11.00 UTC
Ennuste voimassa 29. päivästä klo 12 UTC - 30. päivään klo 12 UTC
Tuuli 10 kn pohjoisen/luoteesta
Näkyvyys 10 km tai enemmän
Hajanaisia pilviä 3000 ft:n korkeudessa
Hajonneita pilviä 9000 ft:n korkeudessa
Tulossa
30. päivästä klo 05 UTC - 30. päivään klo 07 UTC
Tuuli 10 kn lännestä/luoteesta

TAF: SAWH 291100Z 2912/3012 34010KT 9999 SCT030 BKN090 TX07/2918Z TN01/3011Z BECMG 3005/3007 30010KT

Säähavainnot ja -ennusteet yli 4000 lentoasemalta (METAR- ja TAF-raportit).

Käytössä olevat sääasemat on merkitty karttaan keltaisilla ja punaisilla pisteillä.

Aseta hiiri pisteen päälle nähdäksesi sääaseman nimen.

Klikkaa sitten nähdäksesi säähavainnot ja -ennusteet.

Kartan vaihtaminen: klikkaa mustalla rastilla varustettuja vihreitä pisteitä, niin voit zoomata sisään; viivalla varustettua vihreää pistettä, niin voit zoomata ulos tai vihreitä nuolia, niin pääset viereisille kartoille.


METAR-TAF: